sensor_id;sensor_type;location;lat;lon;timestamp;temperature;humidity
33761;DHT22;20084;47.912;19.044;2023-03-01T02:48:59;5.10;99.90
33761;DHT22;20084;47.912;19.044;2023-03-01T06:22:47;5.50;99.90
33761;DHT22;20084;47.912;19.044;2023-03-01T11:09:44;11.20;91.70
33761;DHT22;20084;47.912;19.044;2023-03-01T11:12:14;11.60;90.50
33761;DHT22;20084;47.912;19.044;2023-03-01T11:14:55;11.70;90.70
33761;DHT22;20084;47.912;19.044;2023-03-01T12:36:49;12.90;80.90
33761;DHT22;20084;47.912;19.044;2023-03-01T15:17:37;22.80;47.80
33761;DHT22;20084;47.912;19.044;2023-03-01T15:20:13;22.60;47.00
33761;DHT22;20084;47.912;19.044;2023-03-01T15:22:44;22.50;47.60
33761;DHT22;20084;47.912;19.044;2023-03-01T15:25:25;22.40;48.00
33761;DHT22;20084;47.912;19.044;2023-03-01T15:27:53;22.40;47.80
33761;DHT22;20084;47.912;19.044;2023-03-01T15:30:29;22.20;47.50
33761;DHT22;20084;47.912;19.044;2023-03-01T15:35:46;21.60;47.00
33761;DHT22;20084;47.912;19.044;2023-03-01T15:38:52;21.40;48.30
33761;DHT22;20084;47.912;19.044;2023-03-01T15:41:23;21.30;48.20
33761;DHT22;20084;47.912;19.044;2023-03-01T15:43:49;21.20;49.60
33761;DHT22;20084;47.912;19.044;2023-03-01T15:46:21;21.00;50.00
33761;DHT22;20084;47.912;19.044;2023-03-01T15:48:54;20.70;50.60
33761;DHT22;20084;47.912;19.044;2023-03-01T15:51:36;20.30;51.70
33761;DHT22;20084;47.912;19.044;2023-03-01T15:54:15;19.50;52.10
33761;DHT22;20084;47.912;19.044;2023-03-01T15:56:42;18.40;53.40
33761;DHT22;20084;47.912;19.044;2023-03-01T15:59:11;17.40;55.90
33761;DHT22;20084;47.912;19.044;2023-03-01T16:01:38;16.70;57.10
33761;DHT22;20084;47.912;19.044;2023-03-01T16:04:04;16.20;58.10
33761;DHT22;20084;47.912;19.044;2023-03-01T16:06:30;15.70;59.20
33761;DHT22;20084;47.912;19.044;2023-03-01T16:08:56;15.30;59.90
33761;DHT22;20084;47.912;19.044;2023-03-01T16:11:22;14.90;61.40
33761;DHT22;20084;47.912;19.044;2023-03-01T16:13:48;14.50;62.50
33761;DHT22;20084;47.912;19.044;2023-03-01T16:16:15;14.20;64.00
33761;DHT22;20084;47.912;19.044;2023-03-01T16:18:43;13.90;65.10
33761;DHT22;20084;47.912;19.044;2023-03-01T16:21:22;13.60;66.40
33761;DHT22;20084;47.912;19.044;2023-03-01T16:23:48;13.40;67.30
33761;DHT22;20084;47.912;19.044;2023-03-01T16:26:14;13.10;70.30
33761;DHT22;20084;47.912;19.044;2023-03-01T16:28:41;12.70;71.50
33761;DHT22;20084;47.912;19.044;2023-03-01T16:31:08;12.40;72.40
33761;DHT22;20084;47.912;19.044;2023-03-01T16:33:34;12.20;74.00
33761;DHT22;20084;47.912;19.044;2023-03-01T16:36:11;12.00;75.00
33761;DHT22;20084;47.912;19.044;2023-03-01T16:38:38;11.90;76.20
33761;DHT22;20084;47.912;19.044;2023-03-01T16:41:04;11.70;76.60
33761;DHT22;20084;47.912;19.044;2023-03-01T16:43:32;11.60;77.50
33761;DHT22;20084;47.912;19.044;2023-03-01T16:45:58;11.30;76.10
33761;DHT22;20084;47.912;19.044;2023-03-01T16:48:25;11.00;77.10
33761;DHT22;20084;47.912;19.044;2023-03-01T16:51:00;10.80;78.30
33761;DHT22;20084;47.912;19.044;2023-03-01T16:53:28;10.60;79.30
33761;DHT22;20084;47.912;19.044;2023-03-01T16:55:56;10.50;80.30
33761;DHT22;20084;47.912;19.044;2023-03-01T16:58:22;10.40;82.50
33761;DHT22;20084;47.912;19.044;2023-03-01T17:00:51;10.40;83.90
33761;DHT22;20084;47.912;19.044;2023-03-01T17:03:23;10.20;84.60
33761;DHT22;20084;47.912;19.044;2023-03-01T17:05:49;10.00;86.40
33761;DHT22;20084;47.912;19.044;2023-03-01T17:08:15;9.80;89.30
33761;DHT22;20084;47.912;19.044;2023-03-01T17:10:41;9.50;89.50
33761;DHT22;20084;47.912;19.044;2023-03-01T17:13:08;9.40;90.10
33761;DHT22;20084;47.912;19.044;2023-03-01T17:15:37;9.30;90.80
33761;DHT22;20084;47.912;19.044;2023-03-01T17:18:04;9.10;91.40
33761;DHT22;20084;47.912;19.044;2023-03-01T17:20:30;9.00;92.50
33761;DHT22;20084;47.912;19.044;2023-03-01T17:22:56;8.90;92.50
33761;DHT22;20084;47.912;19.044;2023-03-01T17:25:21;8.70;93.50
33761;DHT22;20084;47.912;19.044;2023-03-01T17:27:47;8.60;93.90
33761;DHT22;20084;47.912;19.044;2023-03-01T17:30:14;8.50;94.40
33761;DHT22;20084;47.912;19.044;2023-03-01T17:32:40;8.40;95.30
33761;DHT22;20084;47.912;19.044;2023-03-01T17:35:06;8.30;95.00
33761;DHT22;20084;47.912;19.044;2023-03-01T17:37:33;8.10;95.40
33761;DHT22;20084;47.912;19.044;2023-03-01T17:39:58;8.00;95.40
33761;DHT22;20084;47.912;19.044;2023-03-01T17:42:24;8.00;96.70
33761;DHT22;20084;47.912;19.044;2023-03-01T17:44:50;7.90;96.80
33761;DHT22;20084;47.912;19.044;2023-03-01T17:47:16;7.80;97.40
33761;DHT22;20084;47.912;19.044;2023-03-01T17:49:42;7.80;97.60
33761;DHT22;20084;47.912;19.044;2023-03-01T17:52:07;7.80;98.50
33761;DHT22;20084;47.912;19.044;2023-03-01T17:54:33;7.70;97.70
33761;DHT22;20084;47.912;19.044;2023-03-01T17:56:59;7.50;97.90
33761;DHT22;20084;47.912;19.044;2023-03-01T17:59:25;7.30;99.10
33761;DHT22;20084;47.912;19.044;2023-03-01T18:01:56;7.20;99.90
33761;DHT22;20084;47.912;19.044;2023-03-01T18:04:23;7.20;99.90
33761;DHT22;20084;47.912;19.044;2023-03-01T18:06:49;7.20;99.90
33761;DHT22;20084;47.912;19.044;2023-03-01T18:09:14;7.10;99.90
33761;DHT22;20084;47.912;19.044;2023-03-01T18:11:41;6.90;99.90
33761;DHT22;20084;47.912;19.044;2023-03-01T18:14:08;6.80;99.90
33761;DHT22;20084;47.912;19.044;2023-03-01T18:16:34;6.70;99.90
33761;DHT22;20084;47.912;19.044;2023-03-01T18:19:01;6.70;99.90
33761;DHT22;20084;47.912;19.044;2023-03-01T18:21:28;6.70;99.90
33761;DHT22;20084;47.912;19.044;2023-03-01T18:23:54;6.70;99.90
33761;DHT22;20084;47.912;19.044;2023-03-01T18:26:21;6.70;99.90
33761;DHT22;20084;47.912;19.044;2023-03-01T18:28:50;6.60;99.90
33761;DHT22;20084;47.912;19.044;2023-03-01T18:31:18;6.40;99.90
33761;DHT22;20084;47.912;19.044;2023-03-01T18:33:46;6.50;99.90
33761;DHT22;20084;47.912;19.044;2023-03-01T18:36:33;6.50;99.90
33761;DHT22;20084;47.912;19.044;2023-03-01T18:39:01;6.60;99.90
33761;DHT22;20084;47.912;19.044;2023-03-01T18:41:29;6.70;99.90
33761;DHT22;20084;47.912;19.044;2023-03-01T18:43:55;6.70;99.90
33761;DHT22;20084;47.912;19.044;2023-03-01T18:46:22;6.50;99.90
33761;DHT22;20084;47.912;19.044;2023-03-01T18:48:48;6.30;99.90
33761;DHT22;20084;47.912;19.044;2023-03-01T18:51:27;6.10;99.90
33761;DHT22;20084;47.912;19.044;2023-03-01T18:53:54;5.90;99.90
33761;DHT22;20084;47.912;19.044;2023-03-01T18:56:20;5.80;99.90
33761;DHT22;20084;47.912;19.044;2023-03-01T18:58:46;5.80;99.90
33761;DHT22;20084;47.912;19.044;2023-03-01T19:01:19;5.70;99.90
33761;DHT22;20084;47.912;19.044;2023-03-01T19:03:46;5.60;99.90
33761;DHT22;20084;47.912;19.044;2023-03-01T19:06:13;5.50;99.90
33761;DHT22;20084;47.912;19.044;2023-03-01T19:08:40;5.50;99.90
33761;DHT22;20084;47.912;19.044;2023-03-01T19:11:07;5.50;99.90
33761;DHT22;20084;47.912;19.044;2023-03-01T19:13:34;5.50;99.90
33761;DHT22;20084;47.912;19.044;2023-03-01T19:16:08;5.60;99.90
33761;DHT22;20084;47.912;19.044;2023-03-01T19:18:36;5.70;99.90
33761;DHT22;20084;47.912;19.044;2023-03-01T19:21:05;5.60;99.90
33761;DHT22;20084;47.912;19.044;2023-03-01T19:23:32;5.50;99.90
33761;DHT22;20084;47.912;19.044;2023-03-01T19:26:11;5.40;99.90
33761;DHT22;20084;47.912;19.044;2023-03-01T19:28:37;5.40;99.90
33761;DHT22;20084;47.912;19.044;2023-03-01T19:31:09;5.50;99.90
33761;DHT22;20084;47.912;19.044;2023-03-01T19:33:36;5.50;99.90
33761;DHT22;20084;47.912;19.044;2023-03-01T19:36:05;5.50;99.90
33761;DHT22;20084;47.912;19.044;2023-03-01T19:38:33;5.40;99.90
33761;DHT22;20084;47.912;19.044;2023-03-01T19:41:07;5.40;99.90
33761;DHT22;20084;47.912;19.044;2023-03-01T19:43:34;5.40;99.90
33761;DHT22;20084;47.912;19.044;2023-03-01T19:46:00;5.40;99.90
33761;DHT22;20084;47.912;19.044;2023-03-01T19:48:27;5.30;99.90
33761;DHT22;20084;47.912;19.044;2023-03-01T19:50:54;5.20;99.90
33761;DHT22;20084;47.912;19.044;2023-03-01T19:53:20;5.20;99.90
33761;DHT22;20084;47.912;19.044;2023-03-01T19:55:47;5.10;99.90
33761;DHT22;20084;47.912;19.044;2023-03-01T19:58:16;5.10;99.90
33761;DHT22;20084;47.912;19.044;2023-03-01T20:00:45;5.10;99.90
33761;DHT22;20084;47.912;19.044;2023-03-01T20:03:12;5.00;99.90
33761;DHT22;20084;47.912;19.044;2023-03-01T20:05:39;4.90;99.90
33761;DHT22;20084;47.912;19.044;2023-03-01T20:08:05;4.80;99.90
33761;DHT22;20084;47.912;19.044;2023-03-01T20:10:34;4.80;99.90
33761;DHT22;20084;47.912;19.044;2023-03-01T20:13:01;4.70;99.90
33761;DHT22;20084;47.912;19.044;2023-03-01T20:15:29;4.70;99.90
33761;DHT22;20084;47.912;19.044;2023-03-01T20:17:56;4.70;99.90
33761;DHT22;20084;47.912;19.044;2023-03-01T20:20:22;4.60;99.90
33761;DHT22;20084;47.912;19.044;2023-03-01T20:22:48;4.60;99.90
33761;DHT22;20084;47.912;19.044;2023-03-01T20:25:14;4.60;99.90
33761;DHT22;20084;47.912;19.044;2023-03-01T20:27:43;4.60;99.90
33761;DHT22;20084;47.912;19.044;2023-03-01T20:30:14;4.60;99.90
33761;DHT22;20084;47.912;19.044;2023-03-01T20:32:40;4.60;99.90
33761;DHT22;20084;47.912;19.044;2023-03-01T20:35:07;4.50;99.90
33761;DHT22;20084;47.912;19.044;2023-03-01T20:37:33;4.50;99.90
33761;DHT22;20084;47.912;19.044;2023-03-01T20:40:00;4.40;99.90
33761;DHT22;20084;47.912;19.044;2023-03-01T20:42:26;4.40;99.90
33761;DHT22;20084;47.912;19.044;2023-03-01T20:44:52;4.40;99.90
33761;DHT22;20084;47.912;19.044;2023-03-01T20:47:19;4.30;99.90
33761;DHT22;20084;47.912;19.044;2023-03-01T20:49:49;4.30;99.90
33761;DHT22;20084;47.912;19.044;2023-03-01T20:52:16;4.30;99.90
33761;DHT22;20084;47.912;19.044;2023-03-01T20:54:42;4.30;99.90
33761;DHT22;20084;47.912;19.044;2023-03-01T20:57:08;4.20;99.90
33761;DHT22;20084;47.912;19.044;2023-03-01T20:59:34;4.20;99.90
33761;DHT22;20084;47.912;19.044;2023-03-01T21:02:00;4.40;99.90
33761;DHT22;20084;47.912;19.044;2023-03-01T21:04:26;4.50;99.90
33761;DHT22;20084;47.912;19.044;2023-03-01T21:06:52;4.60;99.90
33761;DHT22;20084;47.912;19.044;2023-03-01T21:09:18;4.70;99.90
33761;DHT22;20084;47.912;19.044;2023-03-01T21:11:44;4.80;99.90
33761;DHT22;20084;47.912;19.044;2023-03-01T21:14:09;4.80;99.90
33761;DHT22;20084;47.912;19.044;2023-03-01T21:16:36;4.80;99.90
33761;DHT22;20084;47.912;19.044;2023-03-01T21:19:02;4.80;99.90
33761;DHT22;20084;47.912;19.044;2023-03-01T21:21:31;4.60;99.90
33761;DHT22;20084;47.912;19.044;2023-03-01T21:23:58;4.50;99.90
33761;DHT22;20084;47.912;19.044;2023-03-01T21:26:25;4.40;99.90
33761;DHT22;20084;47.912;19.044;2023-03-01T21:28:59;4.30;99.90
33761;DHT22;20084;47.912;19.044;2023-03-01T21:31:34;4.30;99.90
33761;DHT22;20084;47.912;19.044;2023-03-01T21:34:05;4.20;99.90
33761;DHT22;20084;47.912;19.044;2023-03-01T21:36:31;4.20;99.90
33761;DHT22;20084;47.912;19.044;2023-03-01T21:38:59;4.10;99.90
33761;DHT22;20084;47.912;19.044;2023-03-01T21:41:31;4.10;99.90
33761;DHT22;20084;47.912;19.044;2023-03-01T21:43:59;4.00;99.90
33761;DHT22;20084;47.912;19.044;2023-03-01T21:46:30;3.90;99.90
33761;DHT22;20084;47.912;19.044;2023-03-01T21:48:57;3.90;99.90
33761;DHT22;20084;47.912;19.044;2023-03-01T21:51:25;3.80;99.90
33761;DHT22;20084;47.912;19.044;2023-03-01T21:53:51;3.60;99.90
33761;DHT22;20084;47.912;19.044;2023-03-01T21:56:20;3.50;99.90
33761;DHT22;20084;47.912;19.044;2023-03-01T21:58:47;3.50;99.90
33761;DHT22;20084;47.912;19.044;2023-03-01T22:01:15;3.40;99.90
33761;DHT22;20084;47.912;19.044;2023-03-01T22:03:42;3.50;99.90
33761;DHT22;20084;47.912;19.044;2023-03-01T22:06:18;3.50;99.90
33761;DHT22;20084;47.912;19.044;2023-03-01T22:11:17;3.30;99.90
33761;DHT22;20084;47.912;19.044;2023-03-01T22:13:44;3.30;99.90
33761;DHT22;20084;47.912;19.044;2023-03-01T22:16:10;3.30;99.90
33761;DHT22;20084;47.912;19.044;2023-03-01T22:18:36;3.40;99.90
33761;DHT22;20084;47.912;19.044;2023-03-01T22:21:04;3.50;99.90
33761;DHT22;20084;47.912;19.044;2023-03-01T22:23:30;3.70;99.90
33761;DHT22;20084;47.912;19.044;2023-03-01T22:25:56;3.70;99.90
33761;DHT22;20084;47.912;19.044;2023-03-01T22:28:22;3.60;99.90
33761;DHT22;20084;47.912;19.044;2023-03-01T22:30:47;3.20;99.90
33761;DHT22;20084;47.912;19.044;2023-03-01T22:33:13;2.80;99.90
33761;DHT22;20084;47.912;19.044;2023-03-01T22:35:42;2.80;99.90
33761;DHT22;20084;47.912;19.044;2023-03-01T22:38:08;2.90;99.90
33761;DHT22;20084;47.912;19.044;2023-03-01T22:40:34;2.90;99.90
33761;DHT22;20084;47.912;19.044;2023-03-01T22:43:00;2.90;99.90
33761;DHT22;20084;47.912;19.044;2023-03-01T22:45:29;2.90;99.90
33761;DHT22;20084;47.912;19.044;2023-03-01T22:47:59;2.90;99.90
33761;DHT22;20084;47.912;19.044;2023-03-01T22:50:28;3.00;99.90
33761;DHT22;20084;47.912;19.044;2023-03-01T22:52:54;3.20;99.90
33761;DHT22;20084;47.912;19.044;2023-03-01T22:55:19;3.20;99.90
33761;DHT22;20084;47.912;19.044;2023-03-01T22:57:49;3.30;99.90
33761;DHT22;20084;47.912;19.044;2023-03-01T23:00:15;3.30;99.90
33761;DHT22;20084;47.912;19.044;2023-03-01T23:02:41;3.10;99.90
33761;DHT22;20084;47.912;19.044;2023-03-01T23:05:08;2.90;99.90
33761;DHT22;20084;47.912;19.044;2023-03-01T23:07:34;2.90;99.90
33761;DHT22;20084;47.912;19.044;2023-03-01T23:10:00;2.90;99.90
33761;DHT22;20084;47.912;19.044;2023-03-01T23:12:27;2.80;99.90
33761;DHT22;20084;47.912;19.044;2023-03-01T23:14:53;2.70;99.90
33761;DHT22;20084;47.912;19.044;2023-03-01T23:17:19;2.70;99.90
33761;DHT22;20084;47.912;19.044;2023-03-01T23:19:45;2.70;99.90
33761;DHT22;20084;47.912;19.044;2023-03-01T23:22:11;2.80;99.90
33761;DHT22;20084;47.912;19.044;2023-03-01T23:24:36;2.80;99.90
33761;DHT22;20084;47.912;19.044;2023-03-01T23:27:03;2.70;99.90
33761;DHT22;20084;47.912;19.044;2023-03-01T23:29:29;2.80;99.90
33761;DHT22;20084;47.912;19.044;2023-03-01T23:31:56;2.70;99.90
33761;DHT22;20084;47.912;19.044;2023-03-01T23:34:23;2.80;99.90
33761;DHT22;20084;47.912;19.044;2023-03-01T23:36:51;2.80;99.90
33761;DHT22;20084;47.912;19.044;2023-03-01T23:39:17;2.80;99.90
33761;DHT22;20084;47.912;19.044;2023-03-01T23:41:42;2.80;99.90
33761;DHT22;20084;47.912;19.044;2023-03-01T23:44:15;2.80;99.90
33761;DHT22;20084;47.912;19.044;2023-03-01T23:46:42;2.60;99.90
33761;DHT22;20084;47.912;19.044;2023-03-01T23:49:10;2.60;99.90
33761;DHT22;20084;47.912;19.044;2023-03-01T23:51:42;2.60;99.90
33761;DHT22;20084;47.912;19.044;2023-03-01T23:54:17;2.60;99.90
33761;DHT22;20084;47.912;19.044;2023-03-01T23:56:44;2.50;99.90
33761;DHT22;20084;47.912;19.044;2023-03-01T23:59:16;2.60;99.90
